createdAt,value
2019-05-23T00:00:33.822Z,0.00
2019-05-23T00:01:35.846Z,0.00
2019-05-23T00:02:36.250Z,0.00
2019-05-23T00:03:34.178Z,0.00
2019-05-23T00:04:35.798Z,0.00
2019-05-23T00:05:36.064Z,0.00
2019-05-23T00:06:35.148Z,0.00
2019-05-23T00:07:36.299Z,0.00
2019-05-23T00:08:36.738Z,0.00
2019-05-23T00:09:36.551Z,0.00
2019-05-23T00:10:37.537Z,0.00
2019-05-23T00:11:39.661Z,0.00
2019-05-23T00:12:37.183Z,0.00
2019-05-23T00:13:36.196Z,0.00
2019-05-23T00:14:37.152Z,0.00
2019-05-23T00:15:36.757Z,0.00
2019-05-23T00:16:36.559Z,0.00
2019-05-23T00:17:36.504Z,0.00
2019-05-23T00:18:38.092Z,0.00
2019-05-23T00:19:39.181Z,0.00
2019-05-23T00:20:39.742Z,0.00
2019-05-23T00:21:39.343Z,0.00
2019-05-23T00:22:39.778Z,0.00
2019-05-23T00:23:39.516Z,0.00
2019-05-23T00:24:39.178Z,0.00
2019-05-23T00:25:39.676Z,0.00
2019-05-23T00:26:40.138Z,0.00
2019-05-23T00:27:40.613Z,0.00
2019-05-23T00:28:39.985Z,0.00
2019-05-23T00:29:40.749Z,0.00
2019-05-23T00:30:41.205Z,0.00
2019-05-23T00:31:40.654Z,0.00
2019-05-23T00:32:41.182Z,0.00
2019-05-23T00:33:41.022Z,0.00
2019-05-23T00:34:41.678Z,0.00
2019-05-23T00:35:41.550Z,0.00
2019-05-23T00:36:42.222Z,0.00
2019-05-23T00:37:41.787Z,0.00
2019-05-23T00:38:41.403Z,0.00
2019-05-23T00:39:42.134Z,0.00
2019-05-23T00:40:41.891Z,0.00
2019-05-23T00:41:42.287Z,0.00
2019-05-23T00:42:42.823Z,0.00
2019-05-23T00:43:43.344Z,0.00
2019-05-23T00:44:43.196Z,0.00
2019-05-23T00:45:43.132Z,0.00
2019-05-23T00:46:43.214Z,0.00
2019-05-23T00:47:42.428Z,0.00
2019-05-23T00:48:43.219Z,0.00
2019-05-23T00:49:44.840Z,0.00
2019-05-23T00:50:42.850Z,0.00
2019-05-23T00:51:43.354Z,0.00
2019-05-23T00:52:44.484Z,0.00
2019-05-23T00:53:43.518Z,0.00
2019-05-23T00:54:44.167Z,0.00
2019-05-23T00:55:45.005Z,0.00
2019-05-23T00:56:45.095Z,0.00
2019-05-23T00:57:44.731Z,0.00
2019-05-23T00:58:46.266Z,0.00
2019-05-23T00:59:45.818Z,0.00
2019-05-23T01:00:46.055Z,0.00
2019-05-23T01:01:45.567Z,0.00
2019-05-23T01:02:45.635Z,0.00
2019-05-23T01:03:46.820Z,0.00
2019-05-23T01:04:46.190Z,0.00
2019-05-23T01:05:46.549Z,0.00
2019-05-23T01:06:46.839Z,0.00
2019-05-23T01:07:45.729Z,0.00
2019-05-23T01:08:46.855Z,0.00
2019-05-23T01:09:47.939Z,0.00
2019-05-23T01:10:47.202Z,0.00
2019-05-23T01:11:47.224Z,0.00
2019-05-23T01:12:48.391Z,0.00
2019-05-23T01:13:46.889Z,0.00
2019-05-23T01:14:48.250Z,0.00
2019-05-23T01:15:48.628Z,0.00
2019-05-23T01:16:48.879Z,0.00
2019-05-23T01:17:47.369Z,0.00
2019-05-23T01:18:47.322Z,0.00
2019-05-23T01:19:49.683Z,0.00
2019-05-23T01:20:48.245Z,0.00
2019-05-23T01:21:49.167Z,0.00
2019-05-23T01:22:48.729Z,0.00
2019-05-23T01:23:49.531Z,0.00
2019-05-23T01:24:48.037Z,0.00
2019-05-23T01:25:49.688Z,0.00
2019-05-23T01:26:50.797Z,0.00
2019-05-23T01:27:50.301Z,0.00
2019-05-23T01:28:50.154Z,0.00
2019-05-23T01:29:50.613Z,0.00
2019-05-23T01:30:51.339Z,0.00
2019-05-23T01:31:51.207Z,0.00
2019-05-23T01:32:51.247Z,0.00
2019-05-23T01:33:51.905Z,0.00
2019-05-23T01:34:51.310Z,0.00
2019-05-23T01:35:51.619Z,0.00
2019-05-23T01:36:51.995Z,0.00
2019-05-23T01:37:52.247Z,0.00
2019-05-23T01:38:51.915Z,0.00
2019-05-23T01:39:49.594Z,0.00
2019-05-23T01:40:51.500Z,0.00
2019-05-23T01:41:52.936Z,0.00
2019-05-23T01:42:52.050Z,0.00
2019-05-23T01:43:51.484Z,0.00
2019-05-23T01:44:52.059Z,0.00
2019-05-23T01:45:50.870Z,0.00
2019-05-23T01:46:51.029Z,0.00
2019-05-23T01:47:51.133Z,0.00
2019-05-23T01:48:52.534Z,0.00
2019-05-23T01:49:52.830Z,0.00
2019-05-23T01:50:52.163Z,0.00
2019-05-23T01:51:54.049Z,0.00
2019-05-23T01:52:54.860Z,0.00
2019-05-23T01:53:53.133Z,0.00
2019-05-23T01:54:53.962Z,0.00
2019-05-23T01:55:54.464Z,0.00
2019-05-23T01:56:53.562Z,0.00
2019-05-23T01:57:54.584Z,0.00
2019-05-23T01:58:54.108Z,0.00
2019-05-23T02:00:08.176Z,0.00
2019-05-23T02:00:54.418Z,0.00
2019-05-23T02:01:56.442Z,0.00
2019-05-23T02:02:54.952Z,0.00
2019-05-23T02:03:53.695Z,0.00
2019-05-23T02:04:56.631Z,0.00
2019-05-23T02:05:54.916Z,0.00
2019-05-23T02:06:54.352Z,0.00
2019-05-23T02:07:55.761Z,0.00
2019-05-23T02:08:56.559Z,0.00
2019-05-23T02:09:55.706Z,0.00
2019-05-23T02:10:55.128Z,0.00
2019-05-23T02:11:55.885Z,0.00
2019-05-23T02:12:56.018Z,0.00
2019-05-23T02:13:56.208Z,0.00
2019-05-23T02:14:56.819Z,0.00
2019-05-23T02:15:55.733Z,0.00
2019-05-23T02:16:56.841Z,0.00
2019-05-23T02:17:58.657Z,0.00
2019-05-23T02:18:58.006Z,0.00
2019-05-23T02:19:55.617Z,0.00
2019-05-23T02:20:55.858Z,0.00
2019-05-23T02:21:58.540Z,0.00
2019-05-23T02:22:55.020Z,0.00
2019-05-23T02:23:55.184Z,0.00
2019-05-23T02:24:55.357Z,0.00
2019-05-23T02:25:56.778Z,0.00
2019-05-23T02:26:56.869Z,0.00
2019-05-23T02:27:58.804Z,0.00
2019-05-23T02:28:57.968Z,0.00
2019-05-23T02:29:57.033Z,0.00
2019-05-23T02:30:58.962Z,0.00
2019-05-23T02:31:56.639Z,0.00
2019-05-23T02:32:58.840Z,0.00
2019-05-23T02:33:59.924Z,0.00
2019-05-23T02:34:57.198Z,0.00
2019-05-23T02:36:00.273Z,0.00
2019-05-23T02:37:01.402Z,0.00
2019-05-23T02:37:59.233Z,0.00
2019-05-23T02:38:59.591Z,0.00
2019-05-23T02:39:59.189Z,0.00
2019-05-23T02:40:59.631Z,0.00
2019-05-23T02:41:58.389Z,0.00
2019-05-23T02:42:59.607Z,0.00
2019-05-23T02:44:00.541Z,0.00
2019-05-23T02:45:02.060Z,0.00
2019-05-23T02:45:59.662Z,0.00
2019-05-23T02:46:59.488Z,0.00
2019-05-23T02:47:59.643Z,0.00
2019-05-23T02:48:59.965Z,0.00
2019-05-23T02:50:00.021Z,4.00
2019-05-23T02:51:00.435Z,4.00
2019-05-23T02:52:00.417Z,4.00
2019-05-23T02:53:04.464Z,0.00
2019-05-23T02:54:03.738Z,4.00
2019-05-23T02:55:02.290Z,4.00
2019-05-23T02:56:02.113Z,4.00
2019-05-23T02:57:05.096Z,4.00
2019-05-23T02:58:03.892Z,4.00
2019-05-23T02:59:04.653Z,8.00
2019-05-23T03:00:03.689Z,4.00
2019-05-23T03:01:04.802Z,4.00
2019-05-23T03:02:05.292Z,8.00
2019-05-23T03:03:05.185Z,8.00
2019-05-23T03:04:04.324Z,12.00
2019-05-23T03:05:04.773Z,12.00
2019-05-23T03:06:03.925Z,12.00
2019-05-23T03:07:02.785Z,12.00
2019-05-23T03:08:05.694Z,16.00
2019-05-23T03:09:06.401Z,16.00
2019-05-23T03:10:07.217Z,20.00
2019-05-23T03:11:06.093Z,24.00
2019-05-23T03:12:07.088Z,24.00
2019-05-23T03:13:07.759Z,28.00
2019-05-23T03:14:03.545Z,32.00
2019-05-23T03:15:07.719Z,36.00
2019-05-23T03:16:03.841Z,36.00
2019-05-23T03:17:08.246Z,44.00
2019-05-23T03:18:05.242Z,44.00
2019-05-23T03:19:08.139Z,52.00
2019-05-23T03:20:08.743Z,56.00
2019-05-23T03:21:08.443Z,56.00
2019-05-23T03:22:09.355Z,60.00
2019-05-23T03:23:09.002Z,64.00
2019-05-23T03:24:09.249Z,68.00
2019-05-23T03:25:10.249Z,72.00
2019-05-23T03:26:09.252Z,80.00
2019-05-23T03:27:05.518Z,84.00
2019-05-23T03:28:06.495Z,92.00
2019-05-23T03:29:08.734Z,100.00
2019-05-23T03:30:09.193Z,108.00
2019-05-23T03:31:27.416Z,116.00
2019-05-23T03:32:09.545Z,124.00
2019-05-23T03:33:06.356Z,132.00
2019-05-23T03:34:08.213Z,136.00
2019-05-23T03:35:10.721Z,148.00
2019-05-23T03:36:09.753Z,160.00
2019-05-23T03:37:13.847Z,172.00
2019-05-23T03:38:07.199Z,192.00
2019-05-23T03:39:07.372Z,200.00
2019-05-23T03:40:11.737Z,200.00
2019-05-23T03:41:11.247Z,200.00
2019-05-23T03:42:09.924Z,216.00
2019-05-23T03:43:10.360Z,224.00
2019-05-23T03:44:11.288Z,228.00
2019-05-23T03:45:11.417Z,248.00
2019-05-23T03:46:10.060Z,260.00
2019-05-23T03:47:10.589Z,272.00
2019-05-23T03:48:12.176Z,296.00
2019-05-23T03:49:13.516Z,324.00
2019-05-23T03:50:11.572Z,344.00
2019-05-23T03:51:11.755Z,360.00
2019-05-23T03:52:13.780Z,376.00
2019-05-23T03:53:10.110Z,400.00
2019-05-23T03:54:10.031Z,416.00
2019-05-23T03:55:14.143Z,448.00
2019-05-23T03:56:14.299Z,476.00
2019-05-23T03:57:13.893Z,492.00
2019-05-23T03:58:14.034Z,532.00
2019-05-23T03:59:14.696Z,560.00
2019-05-23T04:00:10.633Z,584.00
2019-05-23T04:01:10.818Z,632.00
2019-05-23T04:02:15.049Z,612.00
2019-05-23T04:03:13.055Z,636.00
2019-05-23T04:04:13.983Z,676.00
2019-05-23T04:05:16.349Z,684.00
2019-05-23T04:06:15.087Z,692.00
2019-05-23T04:07:15.149Z,712.00
2019-05-23T04:08:16.105Z,736.00
2019-05-23T04:09:16.113Z,788.00
2019-05-23T04:10:14.392Z,808.00
2019-05-23T04:11:14.907Z,848.00
2019-05-23T04:12:12.772Z,864.00
2019-05-23T04:13:16.115Z,916.00
2019-05-23T04:14:17.957Z,896.00
2019-05-23T04:15:18.860Z,892.00
2019-05-23T04:16:17.196Z,932.00
2019-05-23T04:17:17.174Z,948.00
2019-05-23T04:18:17.538Z,948.00
2019-05-23T04:19:13.956Z,936.00
2019-05-23T04:20:18.194Z,988.00
2019-05-23T04:21:18.783Z,1032.00
2019-05-23T04:22:16.283Z,1060.00
2019-05-23T04:23:16.110Z,1056.00
2019-05-23T04:24:18.607Z,1064.00
2019-05-23T04:25:17.665Z,1100.00
2019-05-23T04:26:19.132Z,1136.00
2019-05-23T04:27:17.365Z,1100.00
2019-05-23T04:28:19.283Z,1108.00
2019-05-23T04:29:19.546Z,1188.00
2019-05-23T04:30:20.439Z,1204.00
2019-05-23T04:31:21.137Z,1244.00
2019-05-23T04:32:20.346Z,1244.00
2019-05-23T04:33:16.275Z,1216.00
2019-05-23T04:34:20.051Z,1216.00
2019-05-23T04:35:19.821Z,1204.00
2019-05-23T04:36:19.290Z,1148.00
2019-05-23T04:37:20.707Z,1172.00
2019-05-23T04:38:20.600Z,1180.00
2019-05-23T04:39:19.482Z,1168.00
2019-05-23T04:40:18.933Z,1116.00
2019-05-23T04:41:19.991Z,1132.00
2019-05-23T04:42:18.791Z,1164.00
2019-05-23T04:43:20.226Z,1168.00
2019-05-23T04:44:19.296Z,1176.00
2019-05-23T04:45:20.648Z,1172.00
2019-05-23T04:46:21.725Z,1208.00
2019-05-23T04:47:18.487Z,1212.00
2019-05-23T04:48:19.898Z,1284.00
2019-05-23T04:49:18.765Z,1356.00
2019-05-23T04:50:23.267Z,1412.00
2019-05-23T04:51:22.904Z,1432.00
2019-05-23T04:52:23.549Z,1400.00
2019-05-23T04:53:22.396Z,1416.00
2019-05-23T04:54:22.173Z,1384.00
2019-05-23T04:55:21.637Z,1448.00
2019-05-23T04:56:22.450Z,1496.00
2019-05-23T04:57:21.544Z,1488.00
2019-05-23T04:58:23.416Z,1608.00
2019-05-23T04:59:23.799Z,1584.00
2019-05-23T05:00:22.060Z,1428.00
2019-05-23T05:01:22.608Z,1448.00
2019-05-23T05:02:26.312Z,1436.00
2019-05-23T05:03:22.470Z,1464.00
2019-05-23T05:04:21.102Z,1532.00
2019-05-23T05:05:24.314Z,1572.00
2019-05-23T05:06:22.974Z,1552.00
2019-05-23T05:07:23.595Z,1488.00
2019-05-23T05:08:23.289Z,1564.00
2019-05-23T05:09:21.886Z,1696.00
2019-05-23T05:10:24.061Z,1808.00
2019-05-23T05:11:30.188Z,2024.00
2019-05-23T05:12:22.336Z,2400.00
2019-05-23T05:13:23.408Z,2572.00
2019-05-23T05:14:23.258Z,2592.00
2019-05-23T05:15:24.628Z,2676.00
2019-05-23T05:16:24.439Z,2656.00
2019-05-23T05:17:25.290Z,2992.00
2019-05-23T05:18:25.378Z,3548.00
2019-05-23T05:19:24.963Z,3680.00
2019-05-23T05:20:24.255Z,3716.00
2019-05-23T05:21:25.307Z,3128.00
2019-05-23T05:22:25.587Z,2996.00
2019-05-23T05:23:24.626Z,3532.00
2019-05-23T05:24:26.130Z,4212.00
2019-05-23T05:25:25.541Z,4248.00
2019-05-23T05:26:25.485Z,4028.00
2019-05-23T05:27:26.339Z,4328.00
2019-05-23T05:28:26.562Z,4988.00
2019-05-23T05:29:26.370Z,5440.00
2019-05-23T05:30:25.366Z,5424.00
2019-05-23T05:31:25.934Z,4836.00
2019-05-23T05:32:41.448Z,4388.00
2019-05-23T05:33:26.676Z,4328.00
2019-05-23T05:34:26.827Z,4296.00
2019-05-23T05:35:27.259Z,4700.00
2019-05-23T05:36:26.262Z,5456.00
2019-05-23T05:37:27.391Z,5936.00
2019-05-23T05:38:28.919Z,6096.00
2019-05-23T05:39:28.884Z,5892.00
2019-05-23T05:40:27.420Z,5520.00
2019-05-23T05:41:28.835Z,5484.00
2019-05-23T05:42:28.209Z,6028.00
2019-05-23T05:43:28.617Z,4752.00
2019-05-23T05:44:29.056Z,4812.00
2019-05-23T05:45:30.049Z,6472.00
2019-05-23T05:46:30.143Z,6820.00
2019-05-23T05:47:31.023Z,6752.00
2019-05-23T05:48:29.549Z,6872.00
2019-05-23T05:49:31.351Z,6528.00
2019-05-23T05:50:33.113Z,5888.00
2019-05-23T05:51:30.013Z,6284.00
2019-05-23T05:52:28.668Z,7692.00
2019-05-23T05:53:29.866Z,8000.00
2019-05-23T05:54:32.355Z,8140.00
2019-05-23T05:55:32.100Z,6864.00
2019-05-23T05:56:32.252Z,9404.00
2019-05-23T05:57:29.620Z,7900.00
2019-05-23T05:58:29.818Z,9168.00
2019-05-23T05:59:30.021Z,8228.00
2019-05-23T06:00:30.195Z,8300.00
2019-05-23T06:01:33.841Z,8272.00
2019-05-23T06:02:30.835Z,8836.00
2019-05-23T06:03:30.710Z,8420.00
2019-05-23T06:04:30.907Z,8336.00
2019-05-23T06:05:31.088Z,7956.00
2019-05-23T06:06:31.297Z,7624.00
2019-05-23T06:07:31.462Z,7604.00
2019-05-23T06:08:31.626Z,7488.00
2019-05-23T06:09:31.786Z,7528.00
2019-05-23T06:10:31.981Z,7660.00
2019-05-23T06:11:32.177Z,8064.00
2019-05-23T06:12:32.347Z,7520.00
2019-05-23T06:13:32.565Z,7472.00
2019-05-23T06:14:32.719Z,7728.00
2019-05-23T06:15:32.944Z,7400.00
2019-05-23T06:16:33.073Z,7480.00
2019-05-23T06:17:33.125Z,7484.00
2019-05-23T06:18:33.306Z,7472.00
2019-05-23T06:19:33.494Z,7764.00
2019-05-23T06:20:33.667Z,7484.00
2019-05-23T06:21:33.845Z,7624.00
2019-05-23T06:22:34.012Z,7676.00
2019-05-23T06:23:34.170Z,7476.00
2019-05-23T06:24:43.995Z,8076.00
2019-05-23T06:25:34.516Z,8020.00
2019-05-23T06:26:34.675Z,7996.00
2019-05-23T06:27:34.841Z,7700.00
2019-05-23T06:28:35.010Z,7872.00
2019-05-23T06:29:35.167Z,8064.00
2019-05-23T06:30:35.788Z,8000.00
2019-05-23T06:31:35.468Z,7900.00
2019-05-23T06:32:35.667Z,7984.00
2019-05-23T06:33:35.836Z,8152.00
2019-05-23T06:34:36.011Z,8272.00
2019-05-23T06:35:36.189Z,8272.00
2019-05-23T06:36:36.353Z,8076.00
2019-05-23T06:37:36.541Z,7992.00
2019-05-23T06:38:36.700Z,8032.00
2019-05-23T06:39:36.883Z,8228.00
2019-05-23T06:40:37.075Z,8400.00
2019-05-23T06:41:37.217Z,8568.00
2019-05-23T06:42:37.382Z,8944.00
2019-05-23T06:43:37.554Z,9192.00
2019-05-23T06:44:37.720Z,9216.00
2019-05-23T06:45:37.918Z,9336.00
2019-05-23T06:46:38.097Z,9380.00
2019-05-23T06:47:38.239Z,9392.00
2019-05-23T06:48:38.419Z,9372.00
2019-05-23T06:49:38.592Z,9300.00
2019-05-23T06:50:38.771Z,9272.00
2019-05-23T06:51:38.930Z,9568.00
2019-05-23T06:52:39.118Z,9752.00
2019-05-23T06:53:39.338Z,9884.00
2019-05-23T06:54:39.492Z,9888.00
2019-05-23T06:55:39.677Z,9912.00
2019-05-23T06:56:39.840Z,10036.00
2019-05-23T06:57:40.009Z,10008.00
2019-05-23T06:58:40.212Z,9924.00
2019-05-23T06:59:40.349Z,10344.00
2019-05-23T07:00:40.654Z,10448.00
2019-05-23T07:01:40.689Z,10504.00
2019-05-23T07:02:40.857Z,10576.00
2019-05-23T07:03:43.452Z,10620.00
2019-05-23T07:04:41.199Z,10632.00
2019-05-23T07:05:41.376Z,10832.00
2019-05-23T07:06:41.545Z,11100.00
2019-05-23T07:07:41.712Z,11380.00
2019-05-23T07:08:41.881Z,11592.00
2019-05-23T07:09:42.057Z,11652.00
2019-05-23T07:10:42.357Z,11640.00
2019-05-23T07:11:46.178Z,11908.00
2019-05-23T07:12:46.378Z,12208.00
2019-05-23T07:13:46.202Z,12624.00
2019-05-23T07:14:42.985Z,12892.00
2019-05-23T07:15:43.069Z,13228.00
2019-05-23T07:16:43.259Z,13644.00
2019-05-23T07:17:43.405Z,13932.00
2019-05-23T07:18:43.707Z,14288.00
2019-05-23T07:19:43.757Z,14620.00
2019-05-23T07:20:44.569Z,15160.00
2019-05-23T07:21:44.129Z,16116.00
2019-05-23T07:22:44.322Z,17568.00
2019-05-23T07:23:44.493Z,21280.00
2019-05-23T07:24:57.566Z,31488.00
2019-05-23T07:25:44.844Z,44032.00
2019-05-23T07:26:45.021Z,58208.00
2019-05-23T07:27:45.199Z,68768.00
2019-05-23T07:28:45.373Z,68704.00
2019-05-23T07:29:45.559Z,68576.00
2019-05-23T07:30:45.764Z,70144.00
2019-05-23T07:31:45.946Z,71904.00
2019-05-23T07:32:46.177Z,71456.00
2019-05-23T07:34:01.202Z,73536.00
2019-05-23T07:34:46.467Z,74848.00
2019-05-23T07:35:46.628Z,69632.00
2019-05-23T07:36:46.804Z,72704.00
2019-05-23T07:37:47.066Z,68672.00
2019-05-23T07:38:47.109Z,66176.00
2019-05-23T07:39:47.287Z,62976.00
2019-05-23T07:40:47.480Z,64704.00
2019-05-23T07:41:47.644Z,63552.00
2019-05-23T07:42:47.821Z,64032.00
2019-05-23T07:43:48.323Z,66144.00
2019-05-23T07:44:48.751Z,63264.00
2019-05-23T07:45:48.310Z,58464.00
2019-05-23T07:46:48.505Z,52416.00
2019-05-23T07:47:48.686Z,47072.00
2019-05-23T07:48:48.865Z,40640.00
2019-05-23T07:49:49.040Z,33056.00
2019-05-23T07:50:49.218Z,27872.00
2019-05-23T07:51:49.401Z,26240.00
2019-05-23T07:52:49.844Z,26048.00
2019-05-23T07:53:49.888Z,27072.00
2019-05-23T07:54:49.861Z,27904.00
2019-05-23T07:55:50.034Z,28896.00
2019-05-23T07:56:50.201Z,27904.00
2019-05-23T07:57:50.375Z,27616.00
2019-05-23T07:58:50.551Z,28544.00
2019-05-23T07:59:50.780Z,30016.00
2019-05-23T08:00:50.949Z,32160.00
2019-05-23T08:01:52.494Z,34560.00
2019-05-23T08:02:51.363Z,37824.00
2019-05-23T08:03:51.634Z,42944.00
2019-05-23T08:04:51.747Z,50496.00
2019-05-23T08:05:51.826Z,58272.00
2019-05-23T08:06:52.029Z,65568.00
2019-05-23T08:07:52.231Z,71648.00
2019-05-23T08:08:52.980Z,76064.00
2019-05-23T08:09:52.577Z,81024.00
2019-05-23T08:10:52.736Z,80224.00
2019-05-23T08:11:52.960Z,81568.00
2019-05-23T08:12:53.323Z,80832.00
2019-05-23T08:13:53.261Z,79744.00
2019-05-23T08:14:53.564Z,80096.00
2019-05-23T08:15:53.600Z,76864.00
2019-05-23T08:16:53.823Z,77696.00
2019-05-23T08:17:53.995Z,76704.00
2019-05-23T08:18:54.175Z,75936.00
2019-05-23T08:19:54.341Z,76416.00
2019-05-23T08:20:54.530Z,78144.00
2019-05-23T08:21:54.717Z,79712.00
2019-05-23T08:22:54.896Z,77920.00
2019-05-23T08:23:55.726Z,76928.00
2019-05-23T08:24:55.263Z,75936.00
2019-05-23T08:25:55.460Z,75584.00
2019-05-23T08:26:55.632Z,73728.00
2019-05-23T08:27:55.811Z,68224.00
2019-05-23T08:29:23.710Z,66080.00
2019-05-23T08:29:56.172Z,65696.00
2019-05-23T08:30:56.347Z,65792.00
2019-05-23T08:31:56.532Z,63008.00
2019-05-23T08:32:56.806Z,63168.00
2019-05-23T08:33:56.852Z,69472.00
2019-05-23T08:34:57.101Z,70432.00
2019-05-23T08:35:57.460Z,67776.00
2019-05-23T08:36:57.466Z,64736.00
2019-05-23T08:37:57.629Z,63744.00
2019-05-23T08:38:57.798Z,63424.00
2019-05-23T08:39:57.988Z,65216.00
2019-05-23T08:40:58.167Z,67392.00
2019-05-23T08:41:58.349Z,68384.00
2019-05-23T08:42:58.536Z,70944.00
2019-05-23T08:43:58.725Z,71520.00
2019-05-23T08:44:58.924Z,70784.00
2019-05-23T08:45:59.569Z,68192.00
2019-05-23T08:46:59.291Z,65152.00
2019-05-23T08:47:59.470Z,61824.00
2019-05-23T08:48:59.646Z,59392.00
2019-05-23T08:49:59.822Z,58208.00
2019-05-23T08:51:00.024Z,58176.00
2019-05-23T08:52:00.185Z,54272.00
2019-05-23T08:53:00.362Z,52416.00
2019-05-23T08:54:00.565Z,51008.00
2019-05-23T08:55:00.756Z,50496.00
2019-05-23T08:56:00.931Z,51776.00
2019-05-23T08:57:01.134Z,50176.00
2019-05-23T08:58:01.323Z,50880.00
2019-05-23T08:59:01.506Z,50880.00
2019-05-23T09:00:01.692Z,52832.00
2019-05-23T09:01:01.871Z,54944.00
2019-05-23T09:02:02.044Z,53280.00
2019-05-23T09:03:02.239Z,55040.00
2019-05-23T09:04:02.438Z,56608.00
2019-05-23T09:05:06.051Z,55200.00
2019-05-23T09:06:02.774Z,52960.00
2019-05-23T09:07:02.986Z,50208.00
2019-05-23T09:08:03.143Z,49856.00
2019-05-23T09:09:03.430Z,50208.00
2019-05-23T09:10:03.501Z,52096.00
2019-05-23T09:11:03.730Z,50016.00
2019-05-23T09:12:03.884Z,57312.00
2019-05-23T09:13:04.188Z,57088.00
2019-05-23T09:14:04.241Z,61344.00
2019-05-23T09:15:04.659Z,60064.00
2019-05-23T09:16:04.863Z,59328.00
2019-05-23T09:17:04.825Z,58784.00
2019-05-23T09:18:05.025Z,57792.00
2019-05-23T09:19:05.202Z,55072.00
2019-05-23T09:20:05.364Z,54144.00
2019-05-23T09:21:05.543Z,53696.00
2019-05-23T09:22:05.725Z,54336.00
2019-05-23T09:23:06.153Z,54624.00
2019-05-23T09:24:06.047Z,55968.00
2019-05-23T09:25:06.245Z,55328.00
2019-05-23T09:26:06.432Z,54368.00
2019-05-23T09:27:06.607Z,55488.00
2019-05-23T09:28:06.793Z,60160.00
2019-05-23T09:29:06.976Z,62912.00
2019-05-23T09:30:07.150Z,64640.00
2019-05-23T09:31:07.430Z,64352.00
2019-05-23T09:32:07.555Z,65632.00
2019-05-23T09:33:07.724Z,66784.00
2019-05-23T09:34:07.929Z,63872.00
2019-05-23T09:35:20.530Z,61824.00
2019-05-23T09:36:08.301Z,63520.00
2019-05-23T09:37:08.485Z,63680.00
2019-05-23T09:38:08.671Z,62368.00
2019-05-23T09:39:08.871Z,61984.00
2019-05-23T09:40:09.020Z,63072.00
2019-05-23T09:41:09.209Z,64160.00
2019-05-23T09:42:12.031Z,64640.00
2019-05-23T09:43:09.585Z,63584.00
2019-05-23T09:44:09.767Z,60960.00
2019-05-23T09:45:09.953Z,63552.00
2019-05-23T09:46:10.132Z,63968.00
2019-05-23T09:47:10.556Z,61312.00
2019-05-23T09:48:10.800Z,60032.00
2019-05-23T09:49:11.530Z,37440.00
2019-05-23T09:50:11.088Z,60640.00
2019-05-23T09:51:11.057Z,20928.00
2019-05-23T09:52:11.661Z,57856.00
2019-05-23T09:53:11.427Z,27648.00
2019-05-23T09:54:11.625Z,31200.00
2019-05-23T09:55:11.803Z,48448.00
2019-05-23T09:56:12.207Z,32096.00
2019-05-23T09:57:13.371Z,15680.00
2019-05-23T09:58:12.386Z,18912.00
2019-05-23T09:59:12.525Z,35520.00
2019-05-23T10:00:13.501Z,16256.00
2019-05-23T10:01:14.447Z,16128.00
2019-05-23T10:02:14.254Z,51872.00
2019-05-23T10:03:15.228Z,51744.00
2019-05-23T10:04:14.540Z,24992.00
2019-05-23T10:05:14.701Z,12944.00
2019-05-23T10:06:14.617Z,10560.00
2019-05-23T10:07:14.382Z,9104.00
2019-05-23T10:08:14.001Z,8256.00
2019-05-23T10:09:14.173Z,7664.00
2019-05-23T10:10:14.347Z,7396.00
2019-05-23T10:11:14.540Z,7392.00
2019-05-23T10:12:14.933Z,7476.00
2019-05-23T10:13:15.254Z,7532.00
2019-05-23T10:14:15.079Z,7700.00
2019-05-23T10:15:15.259Z,8236.00
2019-05-23T10:16:15.440Z,10212.00
2019-05-23T10:17:15.617Z,17760.00
2019-05-23T10:18:15.780Z,16648.00
2019-05-23T10:19:16.142Z,44704.00
2019-05-23T10:20:16.152Z,43808.00
2019-05-23T10:21:16.313Z,38528.00
2019-05-23T10:22:16.475Z,23744.00
2019-05-23T10:23:16.656Z,50624.00
2019-05-23T10:24:16.841Z,45408.00
2019-05-23T10:25:17.025Z,24448.00
2019-05-23T10:26:17.205Z,39552.00
2019-05-23T10:27:17.384Z,20320.00
2019-05-23T10:28:17.640Z,42016.00
2019-05-23T10:29:17.750Z,16936.00
2019-05-23T10:30:17.916Z,49888.00
2019-05-23T10:31:18.100Z,49504.00
2019-05-23T10:32:18.282Z,51712.00
2019-05-23T10:33:18.456Z,47872.00
2019-05-23T10:34:18.638Z,33824.00
2019-05-23T10:35:18.836Z,36960.00
2019-05-23T10:36:18.992Z,33120.00
2019-05-23T10:37:19.165Z,46048.00
2019-05-23T10:38:19.349Z,48896.00
2019-05-23T10:39:19.529Z,47872.00
2019-05-23T10:40:19.703Z,47136.00
2019-05-23T10:41:19.929Z,45536.00
2019-05-23T10:42:20.064Z,44352.00
2019-05-23T10:43:20.235Z,44960.00
2019-05-23T10:44:20.412Z,42336.00
2019-05-23T10:45:20.587Z,44512.00
2019-05-23T10:46:20.782Z,44384.00
2019-05-23T10:47:20.951Z,44544.00
2019-05-23T10:48:21.201Z,16724.00
2019-05-23T10:49:21.321Z,13944.00
2019-05-23T10:50:21.514Z,12576.00
2019-05-23T10:51:21.685Z,11832.00
2019-05-23T10:52:21.872Z,10912.00
2019-05-23T10:53:22.085Z,9892.00
2019-05-23T10:54:22.265Z,9252.00
2019-05-23T10:55:22.459Z,9096.00
2019-05-23T10:56:22.629Z,8904.00
2019-05-23T10:57:23.246Z,8580.00
2019-05-23T10:58:22.935Z,8556.00
2019-05-23T10:59:23.125Z,9052.00
2019-05-23T11:00:23.300Z,19232.00
2019-05-23T11:01:23.499Z,21088.00
2019-05-23T11:02:26.891Z,22496.00
2019-05-23T11:03:23.842Z,22432.00
2019-05-23T11:04:24.027Z,22432.00
2019-05-23T11:05:24.237Z,22080.00
2019-05-23T11:06:24.422Z,21696.00
2019-05-23T11:07:24.600Z,21792.00
2019-05-23T11:08:28.949Z,21056.00
2019-05-23T11:09:37.462Z,17728.00
2019-05-23T11:10:25.150Z,19648.00
2019-05-23T11:11:25.365Z,20832.00
2019-05-23T11:12:25.502Z,21696.00
2019-05-23T11:13:25.684Z,23744.00
2019-05-23T11:14:25.862Z,25056.00
2019-05-23T11:15:26.042Z,24256.00
2019-05-23T11:16:26.225Z,23616.00
2019-05-23T11:17:26.400Z,22528.00
2019-05-23T11:18:26.597Z,22944.00
2019-05-23T11:19:26.758Z,24416.00
2019-05-23T11:20:26.937Z,26592.00
2019-05-23T11:21:27.116Z,24512.00
2019-05-23T11:22:27.292Z,23136.00
2019-05-23T11:23:27.477Z,22848.00
2019-05-23T11:24:27.697Z,22432.00
2019-05-23T11:25:27.845Z,20832.00
2019-05-23T11:26:28.028Z,22144.00
2019-05-23T11:27:28.207Z,22624.00
2019-05-23T11:28:28.385Z,11304.00
2019-05-23T11:29:28.565Z,11240.00
2019-05-23T11:30:28.742Z,17344.00
2019-05-23T11:31:28.925Z,18816.00
2019-05-23T11:32:29.114Z,11216.00
2019-05-23T11:33:29.282Z,10128.00
2019-05-23T11:34:29.465Z,9844.00
2019-05-23T11:35:29.643Z,14672.00
2019-05-23T11:36:35.481Z,16320.00
2019-05-23T11:37:30.006Z,15556.00
2019-05-23T11:38:30.189Z,15172.00
2019-05-23T11:39:30.369Z,14592.00
2019-05-23T11:40:33.549Z,14096.00
2019-05-23T11:41:30.729Z,14124.00
2019-05-23T11:42:30.932Z,13864.00
2019-05-23T11:43:31.088Z,13316.00
2019-05-23T11:44:31.269Z,12376.00
2019-05-23T11:45:31.447Z,11288.00
2019-05-23T11:46:31.643Z,11212.00
2019-05-23T11:47:32.264Z,8112.00
2019-05-23T11:48:31.986Z,7948.00
2019-05-23T11:49:32.165Z,7796.00
2019-05-23T11:50:32.337Z,7452.00
2019-05-23T11:51:32.812Z,7028.00
2019-05-23T11:52:33.037Z,6896.00
2019-05-23T11:53:32.867Z,7088.00
2019-05-23T11:54:33.042Z,7612.00
2019-05-23T11:55:33.242Z,7896.00
2019-05-23T11:56:33.395Z,8116.00
2019-05-23T11:57:37.246Z,8216.00
2019-05-23T11:58:33.743Z,8160.00
2019-05-23T11:59:33.910Z,8004.00
2019-05-23T12:00:34.131Z,8212.00
2019-05-23T12:01:34.266Z,9084.00
2019-05-23T12:02:34.461Z,8272.00
2019-05-23T12:03:34.863Z,9052.00
2019-05-23T12:04:35.180Z,9284.00
2019-05-23T12:05:34.964Z,9396.00
2019-05-23T12:06:51.692Z,9552.00
2019-05-23T12:07:35.323Z,9764.00
2019-05-23T12:08:35.584Z,9784.00
2019-05-23T12:09:35.649Z,9744.00
2019-05-23T12:10:35.844Z,9600.00
2019-05-23T12:11:41.279Z,9400.00
2019-05-23T12:12:36.226Z,9108.00
2019-05-23T12:13:36.396Z,8784.00
2019-05-23T12:14:36.565Z,8676.00
2019-05-23T12:15:36.749Z,8760.00
2019-05-23T12:16:36.916Z,8408.00
2019-05-23T12:17:39.048Z,8196.00
2019-05-23T12:18:37.239Z,8224.00
2019-05-23T12:19:37.541Z,7916.00